sensor_id;sensor_type;location;lat;lon;timestamp;P1;durP1;ratioP1;P2;durP2;ratioP2
25191;SDS011;13143;50.924;5.320;2023-02-21T00:01:34;32.13;;;21.73;;
25191;SDS011;13143;50.924;5.320;2023-02-21T00:04:18;33.30;;;22.80;;
25191;SDS011;13143;50.924;5.320;2023-02-21T00:07:03;31.88;;;21.52;;
25191;SDS011;13143;50.924;5.320;2023-02-21T00:09:47;34.88;;;21.50;;
25191;SDS011;13143;50.924;5.320;2023-02-21T00:12:31;35.17;;;22.10;;
25191;SDS011;13143;50.924;5.320;2023-02-21T00:15:16;36.33;;;23.25;;
25191;SDS011;13143;50.924;5.320;2023-02-21T00:18:00;33.20;;;22.98;;
25191;SDS011;13143;50.924;5.320;2023-02-21T00:20:44;30.40;;;22.58;;
25191;SDS011;13143;50.924;5.320;2023-02-21T00:23:32;35.38;;;23.83;;
25191;SDS011;13143;50.924;5.320;2023-02-21T00:26:18;35.50;;;23.75;;
25191;SDS011;13143;50.924;5.320;2023-02-21T00:29:03;34.20;;;22.20;;
25191;SDS011;13143;50.924;5.320;2023-02-21T00:31:47;35.55;;;22.48;;
25191;SDS011;13143;50.924;5.320;2023-02-21T00:34:31;32.15;;;22.63;;
25191;SDS011;13143;50.924;5.320;2023-02-21T00:37:15;34.33;;;24.40;;
25191;SDS011;13143;50.924;5.320;2023-02-21T00:40:00;34.33;;;23.70;;
25191;SDS011;13143;50.924;5.320;2023-02-21T00:45:28;34.10;;;23.23;;
25191;SDS011;13143;50.924;5.320;2023-02-21T00:48:12;34.38;;;24.23;;
25191;SDS011;13143;50.924;5.320;2023-02-21T00:51:02;38.80;;;23.88;;
25191;SDS011;13143;50.924;5.320;2023-02-21T00:53:46;32.40;;;22.77;;
25191;SDS011;13143;50.924;5.320;2023-02-21T00:56:30;33.30;;;23.38;;
25191;SDS011;13143;50.924;5.320;2023-02-21T00:59:14;34.80;;;24.50;;
25191;SDS011;13143;50.924;5.320;2023-02-21T01:01:59;36.50;;;23.95;;
25191;SDS011;13143;50.924;5.320;2023-02-21T01:04:43;37.50;;;25.60;;
25191;SDS011;13143;50.924;5.320;2023-02-21T01:07:27;37.47;;;25.50;;
25191;SDS011;13143;50.924;5.320;2023-02-21T01:10:11;35.08;;;24.67;;
25191;SDS011;13143;50.924;5.320;2023-02-21T01:12:56;38.53;;;24.58;;
25191;SDS011;13143;50.924;5.320;2023-02-21T01:15:40;35.85;;;25.05;;
25191;SDS011;13143;50.924;5.320;2023-02-21T01:18:24;40.42;;;25.60;;
25191;SDS011;13143;50.924;5.320;2023-02-21T01:21:14;35.78;;;25.30;;
25191;SDS011;13143;50.924;5.320;2023-02-21T01:24:00;34.53;;;24.17;;
25191;SDS011;13143;50.924;5.320;2023-02-21T01:26:44;34.08;;;24.08;;
25191;SDS011;13143;50.924;5.320;2023-02-21T01:29:29;36.17;;;24.95;;
25191;SDS011;13143;50.924;5.320;2023-02-21T01:32:13;36.60;;;24.42;;
25191;SDS011;13143;50.924;5.320;2023-02-21T01:34:57;36.28;;;23.88;;
25191;SDS011;13143;50.924;5.320;2023-02-21T01:37:41;34.47;;;23.02;;
25191;SDS011;13143;50.924;5.320;2023-02-21T01:40:26;32.80;;;23.40;;
25191;SDS011;13143;50.924;5.320;2023-02-21T01:43:14;38.83;;;25.30;;
25191;SDS011;13143;50.924;5.320;2023-02-21T01:46:06;41.90;;;25.02;;
25191;SDS011;13143;50.924;5.320;2023-02-21T01:48:54;34.42;;;23.67;;
25191;SDS011;13143;50.924;5.320;2023-02-21T01:51:39;35.88;;;23.80;;
25191;SDS011;13143;50.924;5.320;2023-02-21T01:54:25;42.75;;;24.20;;
25191;SDS011;13143;50.924;5.320;2023-02-21T01:57:12;38.80;;;24.63;;
25191;SDS011;13143;50.924;5.320;2023-02-21T01:59:57;38.70;;;24.52;;
25191;SDS011;13143;50.924;5.320;2023-02-21T02:03:06;35.88;;;24.35;;
25191;SDS011;13143;50.924;5.320;2023-02-21T02:06:02;40.33;;;24.45;;
25191;SDS011;13143;50.924;5.320;2023-02-21T02:08:49;36.95;;;23.70;;
25191;SDS011;13143;50.924;5.320;2023-02-21T02:11:40;39.13;;;23.77;;
25191;SDS011;13143;50.924;5.320;2023-02-21T02:44:05;36.45;;;23.88;;
25191;SDS011;13143;50.924;5.320;2023-02-21T02:46:39;38.42;;;24.98;;
25191;SDS011;13143;50.924;5.320;2023-02-21T02:49:08;41.72;;;25.63;;
25191;SDS011;13143;50.924;5.320;2023-02-21T02:51:38;43.25;;;25.25;;
25191;SDS011;13143;50.924;5.320;2023-02-21T02:54:04;40.88;;;25.25;;
25191;SDS011;13143;50.924;5.320;2023-02-21T02:56:30;39.97;;;24.63;;
25191;SDS011;13143;50.924;5.320;2023-02-21T02:58:59;43.58;;;24.23;;
25191;SDS011;13143;50.924;5.320;2023-02-21T03:12:35;45.33;;;26.63;;
25191;SDS011;13143;50.924;5.320;2023-02-21T03:17:32;48.45;;;27.95;;
25191;SDS011;13143;50.924;5.320;2023-02-21T03:20:06;42.70;;;25.40;;
25191;SDS011;13143;50.924;5.320;2023-02-21T03:22:35;42.17;;;25.73;;
25191;SDS011;13143;50.924;5.320;2023-02-21T03:25:01;41.40;;;26.00;;
25191;SDS011;13143;50.924;5.320;2023-02-21T03:27:28;45.15;;;24.73;;
25191;SDS011;13143;50.924;5.320;2023-02-21T03:29:56;44.92;;;25.27;;
25191;SDS011;13143;50.924;5.320;2023-02-21T03:32:29;45.08;;;25.85;;
25191;SDS011;13143;50.924;5.320;2023-02-21T03:34:57;42.85;;;25.30;;
25191;SDS011;13143;50.924;5.320;2023-02-21T03:37:30;41.05;;;25.15;;
25191;SDS011;13143;50.924;5.320;2023-02-21T03:40:08;44.22;;;24.33;;
25191;SDS011;13143;50.924;5.320;2023-02-21T03:42:55;45.22;;;25.40;;
25191;SDS011;13143;50.924;5.320;2023-02-21T03:45:22;43.08;;;25.15;;
25191;SDS011;13143;50.924;5.320;2023-02-21T03:47:48;47.13;;;26.98;;
25191;SDS011;13143;50.924;5.320;2023-02-21T03:50:13;46.53;;;26.15;;
25191;SDS011;13143;50.924;5.320;2023-02-21T03:52:39;47.33;;;26.77;;
25191;SDS011;13143;50.924;5.320;2023-02-21T03:55:05;48.83;;;27.00;;
25191;SDS011;13143;50.924;5.320;2023-02-21T03:57:32;44.97;;;26.55;;
25191;SDS011;13143;50.924;5.320;2023-02-21T03:59:58;47.58;;;27.73;;
25191;SDS011;13143;50.924;5.320;2023-02-21T04:02:23;50.58;;;27.73;;
25191;SDS011;13143;50.924;5.320;2023-02-21T04:04:49;52.17;;;27.50;;
25191;SDS011;13143;50.924;5.320;2023-02-21T04:07:15;54.40;;;27.65;;
25191;SDS011;13143;50.924;5.320;2023-02-21T04:09:43;49.08;;;27.25;;
25191;SDS011;13143;50.924;5.320;2023-02-21T04:12:09;48.80;;;28.20;;
25191;SDS011;13143;50.924;5.320;2023-02-21T04:14:35;50.90;;;28.88;;
25191;SDS011;13143;50.924;5.320;2023-02-21T04:17:01;54.60;;;30.08;;
25191;SDS011;13143;50.924;5.320;2023-02-21T04:19:26;57.95;;;30.60;;
25191;SDS011;13143;50.924;5.320;2023-02-21T04:21:52;51.03;;;29.50;;
25191;SDS011;13143;50.924;5.320;2023-02-21T04:24:18;49.10;;;28.98;;
25191;SDS011;13143;50.924;5.320;2023-02-21T04:26:43;54.35;;;28.38;;
25191;SDS011;13143;50.924;5.320;2023-02-21T04:29:09;52.80;;;28.58;;
25191;SDS011;13143;50.924;5.320;2023-02-21T04:31:35;51.95;;;28.23;;
25191;SDS011;13143;50.924;5.320;2023-02-21T04:34:00;51.28;;;27.38;;
25191;SDS011;13143;50.924;5.320;2023-02-21T04:36:26;52.35;;;28.70;;
25191;SDS011;13143;50.924;5.320;2023-02-21T04:38:52;47.22;;;26.38;;
25191;SDS011;13143;50.924;5.320;2023-02-21T04:41:18;44.72;;;25.58;;
25191;SDS011;13143;50.924;5.320;2023-02-21T04:43:44;45.50;;;25.35;;
25191;SDS011;13143;50.924;5.320;2023-02-21T04:46:10;41.40;;;24.33;;
25191;SDS011;13143;50.924;5.320;2023-02-21T04:48:40;45.15;;;23.35;;
25191;SDS011;13143;50.924;5.320;2023-02-21T04:51:07;40.92;;;22.02;;
25191;SDS011;13143;50.924;5.320;2023-02-21T04:53:32;39.75;;;21.98;;
25191;SDS011;13143;50.924;5.320;2023-02-21T04:55:58;38.28;;;21.80;;
25191;SDS011;13143;50.924;5.320;2023-02-21T04:58:24;43.95;;;24.35;;
25191;SDS011;13143;50.924;5.320;2023-02-21T05:00:49;40.50;;;23.33;;
25191;SDS011;13143;50.924;5.320;2023-02-21T05:03:15;42.45;;;23.90;;
25191;SDS011;13143;50.924;5.320;2023-02-21T05:05:42;45.03;;;24.02;;
25191;SDS011;13143;50.924;5.320;2023-02-21T05:08:08;47.22;;;24.42;;
25191;SDS011;13143;50.924;5.320;2023-02-21T05:10:33;44.75;;;25.75;;
25191;SDS011;13143;50.924;5.320;2023-02-21T05:12:59;45.75;;;25.98;;
25191;SDS011;13143;50.924;5.320;2023-02-21T05:15:25;45.13;;;26.10;;
25191;SDS011;13143;50.924;5.320;2023-02-21T05:17:50;48.65;;;25.55;;
25191;SDS011;13143;50.924;5.320;2023-02-21T05:20:16;42.38;;;24.45;;
25191;SDS011;13143;50.924;5.320;2023-02-21T05:22:42;42.25;;;23.35;;
25191;SDS011;13143;50.924;5.320;2023-02-21T05:25:14;43.67;;;24.40;;
25191;SDS011;13143;50.924;5.320;2023-02-21T05:27:41;45.10;;;24.67;;
25191;SDS011;13143;50.924;5.320;2023-02-21T05:30:07;44.58;;;23.85;;
25191;SDS011;13143;50.924;5.320;2023-02-21T05:32:34;44.22;;;23.85;;
25191;SDS011;13143;50.924;5.320;2023-02-21T05:35:00;42.45;;;24.17;;
25191;SDS011;13143;50.924;5.320;2023-02-21T05:37:25;44.00;;;23.67;;
25191;SDS011;13143;50.924;5.320;2023-02-21T05:39:51;43.45;;;25.58;;
25191;SDS011;13143;50.924;5.320;2023-02-21T05:42:16;47.45;;;24.58;;
25191;SDS011;13143;50.924;5.320;2023-02-21T05:44:43;43.58;;;24.75;;
25191;SDS011;13143;50.924;5.320;2023-02-21T05:47:10;44.50;;;25.70;;
25191;SDS011;13143;50.924;5.320;2023-02-21T05:49:35;47.72;;;24.92;;
25191;SDS011;13143;50.924;5.320;2023-02-21T05:52:01;46.58;;;26.25;;
25191;SDS011;13143;50.924;5.320;2023-02-21T05:54:28;47.33;;;25.60;;
25191;SDS011;13143;50.924;5.320;2023-02-21T05:56:54;52.08;;;26.58;;
25191;SDS011;13143;50.924;5.320;2023-02-21T05:59:20;52.05;;;27.75;;
25191;SDS011;13143;50.924;5.320;2023-02-21T06:01:46;43.22;;;24.17;;
25191;SDS011;13143;50.924;5.320;2023-02-21T06:04:12;45.85;;;25.00;;
25191;SDS011;13143;50.924;5.320;2023-02-21T06:06:38;47.45;;;25.75;;
25191;SDS011;13143;50.924;5.320;2023-02-21T06:09:04;48.22;;;25.10;;
25191;SDS011;13143;50.924;5.320;2023-02-21T06:11:31;46.35;;;25.13;;
25191;SDS011;13143;50.924;5.320;2023-02-21T06:13:59;49.85;;;25.75;;
25191;SDS011;13143;50.924;5.320;2023-02-21T06:16:30;48.55;;;24.83;;
25191;SDS011;13143;50.924;5.320;2023-02-21T06:19:03;47.00;;;25.05;;
25191;SDS011;13143;50.924;5.320;2023-02-21T06:21:30;49.88;;;26.13;;
25191;SDS011;13143;50.924;5.320;2023-02-21T06:23:56;46.60;;;25.80;;
25191;SDS011;13143;50.924;5.320;2023-02-21T06:26:22;45.90;;;25.35;;
25191;SDS011;13143;50.924;5.320;2023-02-21T06:28:48;46.20;;;24.63;;
25191;SDS011;13143;50.924;5.320;2023-02-21T06:31:15;44.45;;;23.95;;
25191;SDS011;13143;50.924;5.320;2023-02-21T06:33:41;42.85;;;23.85;;
25191;SDS011;13143;50.924;5.320;2023-02-21T06:36:09;44.38;;;24.40;;
25191;SDS011;13143;50.924;5.320;2023-02-21T06:38:38;48.03;;;24.58;;
25191;SDS011;13143;50.924;5.320;2023-02-21T06:41:04;48.08;;;25.52;;
25191;SDS011;13143;50.924;5.320;2023-02-21T06:43:33;52.42;;;26.08;;
25191;SDS011;13143;50.924;5.320;2023-02-21T06:46:02;52.00;;;25.00;;
25191;SDS011;13143;50.924;5.320;2023-02-21T06:48:28;42.35;;;24.02;;
25191;SDS011;13143;50.924;5.320;2023-02-21T06:50:55;43.92;;;23.55;;
25191;SDS011;13143;50.924;5.320;2023-02-21T06:53:21;47.42;;;23.45;;
25191;SDS011;13143;50.924;5.320;2023-02-21T06:55:46;42.15;;;23.15;;
25191;SDS011;13143;50.924;5.320;2023-02-21T06:58:12;39.75;;;22.27;;
25191;SDS011;13143;50.924;5.320;2023-02-21T07:00:38;43.05;;;23.35;;
25191;SDS011;13143;50.924;5.320;2023-02-21T07:03:04;46.30;;;23.92;;
25191;SDS011;13143;50.924;5.320;2023-02-21T07:05:29;40.30;;;20.80;;
25191;SDS011;13143;50.924;5.320;2023-02-21T07:07:59;39.42;;;21.23;;
25191;SDS011;13143;50.924;5.320;2023-02-21T07:10:25;40.47;;;21.17;;
25191;SDS011;13143;50.924;5.320;2023-02-21T07:12:51;43.42;;;21.98;;
25191;SDS011;13143;50.924;5.320;2023-02-21T07:15:17;41.30;;;21.65;;
25191;SDS011;13143;50.924;5.320;2023-02-21T07:17:43;42.20;;;21.30;;
25191;SDS011;13143;50.924;5.320;2023-02-21T07:20:08;38.88;;;21.73;;
25191;SDS011;13143;50.924;5.320;2023-02-21T07:22:34;40.45;;;20.63;;
25191;SDS011;13143;50.924;5.320;2023-02-21T07:25:00;42.42;;;21.42;;
25191;SDS011;13143;50.924;5.320;2023-02-21T07:27:25;44.00;;;21.50;;
25191;SDS011;13143;50.924;5.320;2023-02-21T07:29:51;41.47;;;21.60;;
25191;SDS011;13143;50.924;5.320;2023-02-21T07:32:17;40.58;;;20.77;;
25191;SDS011;13143;50.924;5.320;2023-02-21T07:34:42;42.70;;;21.45;;
25191;SDS011;13143;50.924;5.320;2023-02-21T07:37:08;41.95;;;21.58;;
25191;SDS011;13143;50.924;5.320;2023-02-21T07:39:34;45.67;;;23.20;;
25191;SDS011;13143;50.924;5.320;2023-02-21T07:42:00;44.38;;;22.33;;
25191;SDS011;13143;50.924;5.320;2023-02-21T07:44:26;42.13;;;22.75;;
25191;SDS011;13143;50.924;5.320;2023-02-21T07:46:51;42.25;;;22.65;;
25191;SDS011;13143;50.924;5.320;2023-02-21T07:49:19;46.63;;;23.58;;
25191;SDS011;13143;50.924;5.320;2023-02-21T07:51:44;48.00;;;25.00;;
25191;SDS011;13143;50.924;5.320;2023-02-21T07:54:10;51.20;;;23.00;;
25191;SDS011;13143;50.924;5.320;2023-02-21T07:56:41;40.63;;;21.73;;
25191;SDS011;13143;50.924;5.320;2023-02-21T07:59:10;40.08;;;21.15;;
25191;SDS011;13143;50.924;5.320;2023-02-21T08:01:35;37.45;;;19.38;;
25191;SDS011;13143;50.924;5.320;2023-02-21T08:04:01;32.13;;;17.13;;
25191;SDS011;13143;50.924;5.320;2023-02-21T08:06:26;34.55;;;17.65;;
25191;SDS011;13143;50.924;5.320;2023-02-21T08:08:52;33.03;;;17.05;;
25191;SDS011;13143;50.924;5.320;2023-02-21T08:11:18;33.22;;;17.67;;
25191;SDS011;13143;50.924;5.320;2023-02-21T08:13:43;37.63;;;17.65;;
25191;SDS011;13143;50.924;5.320;2023-02-21T08:16:09;39.47;;;18.38;;
25191;SDS011;13143;50.924;5.320;2023-02-21T08:18:35;34.38;;;18.55;;
25191;SDS011;13143;50.924;5.320;2023-02-21T08:21:00;41.17;;;21.98;;
25191;SDS011;13143;50.924;5.320;2023-02-21T08:23:26;32.90;;;18.48;;
25191;SDS011;13143;50.924;5.320;2023-02-21T08:25:52;34.75;;;17.85;;
25191;SDS011;13143;50.924;5.320;2023-02-21T08:28:17;30.83;;;16.77;;
25191;SDS011;13143;50.924;5.320;2023-02-21T08:30:43;29.13;;;16.23;;
25191;SDS011;13143;50.924;5.320;2023-02-21T08:33:09;24.65;;;15.00;;
25191;SDS011;13143;50.924;5.320;2023-02-21T08:35:34;27.13;;;14.63;;
25191;SDS011;13143;50.924;5.320;2023-02-21T08:38:00;26.88;;;14.52;;
25191;SDS011;13143;50.924;5.320;2023-02-21T08:40:29;23.17;;;14.45;;
25191;SDS011;13143;50.924;5.320;2023-02-21T08:42:55;23.85;;;14.00;;
25191;SDS011;13143;50.924;5.320;2023-02-21T08:45:22;27.73;;;15.15;;
25191;SDS011;13143;50.924;5.320;2023-02-21T08:47:49;22.30;;;14.13;;
25191;SDS011;13143;50.924;5.320;2023-02-21T08:50:15;24.38;;;14.23;;
25191;SDS011;13143;50.924;5.320;2023-02-21T08:52:42;24.40;;;13.95;;
25191;SDS011;13143;50.924;5.320;2023-02-21T08:55:10;21.40;;;12.77;;
25191;SDS011;13143;50.924;5.320;2023-02-21T08:57:36;21.38;;;12.68;;
25191;SDS011;13143;50.924;5.320;2023-02-21T09:00:02;22.15;;;12.30;;
25191;SDS011;13143;50.924;5.320;2023-02-21T09:02:30;16.95;;;11.23;;
25191;SDS011;13143;50.924;5.320;2023-02-21T09:04:56;16.52;;;10.95;;
25191;SDS011;13143;50.924;5.320;2023-02-21T09:07:23;17.23;;;11.07;;
25191;SDS011;13143;50.924;5.320;2023-02-21T09:09:49;29.55;;;16.60;;
25191;SDS011;13143;50.924;5.320;2023-02-21T09:12:15;20.45;;;12.93;;
25191;SDS011;13143;50.924;5.320;2023-02-21T09:14:41;19.35;;;12.52;;
25191;SDS011;13143;50.924;5.320;2023-02-21T09:17:08;20.17;;;11.80;;
25191;SDS011;13143;50.924;5.320;2023-02-21T09:19:35;22.75;;;12.68;;
25191;SDS011;13143;50.924;5.320;2023-02-21T09:22:01;20.52;;;11.48;;
25191;SDS011;13143;50.924;5.320;2023-02-21T09:24:28;21.88;;;13.07;;
25191;SDS011;13143;50.924;5.320;2023-02-21T09:26:55;22.00;;;12.95;;
25191;SDS011;13143;50.924;5.320;2023-02-21T09:29:29;21.55;;;12.98;;
25191;SDS011;13143;50.924;5.320;2023-02-21T09:31:56;19.48;;;12.40;;
25191;SDS011;13143;50.924;5.320;2023-02-21T09:34:22;20.27;;;13.45;;
25191;SDS011;13143;50.924;5.320;2023-02-21T09:36:48;21.20;;;13.15;;
25191;SDS011;13143;50.924;5.320;2023-02-21T09:39:18;20.23;;;12.65;;
25191;SDS011;13143;50.924;5.320;2023-02-21T09:41:44;21.83;;;12.85;;
25191;SDS011;13143;50.924;5.320;2023-02-21T09:44:13;18.88;;;12.23;;
25191;SDS011;13143;50.924;5.320;2023-02-21T09:46:45;22.60;;;12.98;;
25191;SDS011;13143;50.924;5.320;2023-02-21T09:49:16;24.33;;;13.65;;
25191;SDS011;13143;50.924;5.320;2023-02-21T09:51:53;21.90;;;13.13;;
25191;SDS011;13143;50.924;5.320;2023-02-21T09:54:33;21.88;;;13.32;;
25191;SDS011;13143;50.924;5.320;2023-02-21T09:57:05;22.40;;;13.45;;
25191;SDS011;13143;50.924;5.320;2023-02-21T09:59:38;23.00;;;13.43;;
25191;SDS011;13143;50.924;5.320;2023-02-21T10:09:59;24.48;;;14.98;;
25191;SDS011;13143;50.924;5.320;2023-02-21T10:12:39;25.58;;;14.82;;
25191;SDS011;13143;50.924;5.320;2023-02-21T10:15:19;28.90;;;17.80;;
25191;SDS011;13143;50.924;5.320;2023-02-21T10:18:14;31.85;;;18.15;;
25191;SDS011;13143;50.924;5.320;2023-02-21T10:20:52;25.60;;;15.48;;
25191;SDS011;13143;50.924;5.320;2023-02-21T10:23:26;22.35;;;14.00;;
25191;SDS011;13143;50.924;5.320;2023-02-21T10:26:23;25.67;;;15.55;;
25191;SDS011;13143;50.924;5.320;2023-02-21T10:28:52;24.65;;;15.27;;
25191;SDS011;13143;50.924;5.320;2023-02-21T10:31:29;24.80;;;14.75;;
25191;SDS011;13143;50.924;5.320;2023-02-21T10:34:00;24.42;;;15.25;;
25191;SDS011;13143;50.924;5.320;2023-02-21T10:36:29;25.35;;;14.95;;
25191;SDS011;13143;50.924;5.320;2023-02-21T10:39:08;25.38;;;14.38;;
25191;SDS011;13143;50.924;5.320;2023-02-21T10:41:38;29.15;;;17.48;;
25191;SDS011;13143;50.924;5.320;2023-02-21T10:44:09;26.98;;;16.20;;
25191;SDS011;13143;50.924;5.320;2023-02-21T10:46:44;31.25;;;16.67;;
25191;SDS011;13143;50.924;5.320;2023-02-21T10:49:34;27.83;;;15.82;;
25191;SDS011;13143;50.924;5.320;2023-02-21T10:54:34;26.75;;;15.30;;
25191;SDS011;13143;50.924;5.320;2023-02-21T10:56:59;27.67;;;15.05;;
25191;SDS011;13143;50.924;5.320;2023-02-21T10:59:32;24.98;;;14.80;;
25191;SDS011;13143;50.924;5.320;2023-02-21T11:02:00;26.35;;;15.55;;
25191;SDS011;13143;50.924;5.320;2023-02-21T11:04:29;27.15;;;15.25;;
25191;SDS011;13143;50.924;5.320;2023-02-21T11:09:32;24.88;;;14.98;;
25191;SDS011;13143;50.924;5.320;2023-02-21T11:12:00;27.52;;;14.98;;
25191;SDS011;13143;50.924;5.320;2023-02-21T11:14:42;25.93;;;15.47;;
25191;SDS011;13143;50.924;5.320;2023-02-21T11:19:57;30.02;;;16.58;;
25191;SDS011;13143;50.924;5.320;2023-02-21T11:22:39;30.13;;;17.00;;
25191;SDS011;13143;50.924;5.320;2023-02-21T11:30:43;30.67;;;17.45;;
25191;SDS011;13143;50.924;5.320;2023-02-21T11:33:27;35.22;;;18.80;;
25191;SDS011;13143;50.924;5.320;2023-02-21T11:36:06;33.53;;;18.80;;
25191;SDS011;13143;50.924;5.320;2023-02-21T11:38:36;32.25;;;18.02;;
25191;SDS011;13143;50.924;5.320;2023-02-21T11:41:16;35.97;;;17.50;;
25191;SDS011;13143;50.924;5.320;2023-02-21T11:43:51;32.78;;;18.08;;
25191;SDS011;13143;50.924;5.320;2023-02-21T11:54:28;32.00;;;18.08;;
25191;SDS011;13143;50.924;5.320;2023-02-21T11:57:01;33.72;;;17.98;;
25191;SDS011;13143;50.924;5.320;2023-02-21T12:02:32;34.92;;;18.75;;
25191;SDS011;13143;50.924;5.320;2023-02-21T12:19:12;32.92;;;18.50;;
25191;SDS011;13143;50.924;5.320;2023-02-21T12:22:01;37.42;;;19.77;;
25191;SDS011;13143;50.924;5.320;2023-02-21T12:33:19;39.63;;;21.13;;
25191;SDS011;13143;50.924;5.320;2023-02-21T12:41:27;39.42;;;19.40;;
25191;SDS011;13143;50.924;5.320;2023-02-21T12:47:00;37.72;;;20.25;;
25191;SDS011;13143;50.924;5.320;2023-02-21T12:49:31;39.03;;;19.20;;
25191;SDS011;13143;50.924;5.320;2023-02-21T12:52:12;39.53;;;20.85;;
25191;SDS011;13143;50.924;5.320;2023-02-21T12:57:26;39.28;;;20.95;;
25191;SDS011;13143;50.924;5.320;2023-02-21T13:00:15;39.22;;;20.88;;
25191;SDS011;13143;50.924;5.320;2023-02-21T13:05:45;38.03;;;19.65;;
25191;SDS011;13143;50.924;5.320;2023-02-21T13:08:28;33.67;;;19.20;;
25191;SDS011;13143;50.924;5.320;2023-02-21T13:11:14;40.42;;;19.83;;
25191;SDS011;13143;50.924;5.320;2023-02-21T13:13:46;47.67;;;23.77;;
25191;SDS011;13143;50.924;5.320;2023-02-21T13:16:11;45.65;;;22.83;;
25191;SDS011;13143;50.924;5.320;2023-02-21T13:18:38;42.90;;;22.05;;
25191;SDS011;13143;50.924;5.320;2023-02-21T13:23:49;38.55;;;20.63;;
25191;SDS011;13143;50.924;5.320;2023-02-21T13:29:31;38.28;;;20.83;;
25191;SDS011;13143;50.924;5.320;2023-02-21T13:32:04;40.33;;;19.60;;
25191;SDS011;13143;50.924;5.320;2023-02-21T13:34:39;37.17;;;19.58;;
25191;SDS011;13143;50.924;5.320;2023-02-21T13:37:14;36.63;;;20.70;;
25191;SDS011;13143;50.924;5.320;2023-02-21T13:39:44;34.65;;;19.08;;
25191;SDS011;13143;50.924;5.320;2023-02-21T13:42:19;38.55;;;19.70;;
25191;SDS011;13143;50.924;5.320;2023-02-21T13:44:48;33.83;;;18.63;;
25191;SDS011;13143;50.924;5.320;2023-02-21T13:47:27;38.28;;;19.90;;
25191;SDS011;13143;50.924;5.320;2023-02-21T13:55:40;31.65;;;17.42;;
25191;SDS011;13143;50.924;5.320;2023-02-21T14:01:37;30.38;;;16.92;;
25191;SDS011;13143;50.924;5.320;2023-02-21T14:10:23;30.55;;;17.55;;
25191;SDS011;13143;50.924;5.320;2023-02-21T14:12:53;29.27;;;16.38;;
25191;SDS011;13143;50.924;5.320;2023-02-21T14:15:21;29.77;;;17.73;;
25191;SDS011;13143;50.924;5.320;2023-02-21T14:17:47;27.08;;;16.60;;
25191;SDS011;13143;50.924;5.320;2023-02-21T14:20:16;29.52;;;16.98;;
25191;SDS011;13143;50.924;5.320;2023-02-21T14:22:45;30.38;;;17.48;;
25191;SDS011;13143;50.924;5.320;2023-02-21T14:25:20;29.20;;;17.77;;
25191;SDS011;13143;50.924;5.320;2023-02-21T14:27:48;31.42;;;17.83;;
25191;SDS011;13143;50.924;5.320;2023-02-21T14:30:28;32.92;;;19.45;;
25191;SDS011;13143;50.924;5.320;2023-02-21T14:32:58;30.38;;;18.60;;
25191;SDS011;13143;50.924;5.320;2023-02-21T14:35:45;30.23;;;18.10;;
25191;SDS011;13143;50.924;5.320;2023-02-21T14:38:21;31.20;;;17.88;;
25191;SDS011;13143;50.924;5.320;2023-02-21T14:41:34;27.50;;;17.38;;
25191;SDS011;13143;50.924;5.320;2023-02-21T14:43:41;27.73;;;17.25;;
25191;SDS011;13143;50.924;5.320;2023-02-21T14:49:08;32.42;;;17.98;;
25191;SDS011;13143;50.924;5.320;2023-02-21T15:00:29;29.10;;;16.63;;
25191;SDS011;13143;50.924;5.320;2023-02-21T15:03:23;29.95;;;17.75;;
25191;SDS011;13143;50.924;5.320;2023-02-21T15:06:01;27.95;;;17.17;;
25191;SDS011;13143;50.924;5.320;2023-02-21T15:08:45;31.98;;;18.88;;
25191;SDS011;13143;50.924;5.320;2023-02-21T15:11:23;35.28;;;17.08;;
25191;SDS011;13143;50.924;5.320;2023-02-21T15:14:14;27.98;;;16.75;;
25191;SDS011;13143;50.924;5.320;2023-02-21T15:16:48;30.10;;;18.13;;
25191;SDS011;13143;50.924;5.320;2023-02-21T15:19:24;27.98;;;17.52;;
25191;SDS011;13143;50.924;5.320;2023-02-21T15:27:32;31.88;;;17.42;;
25191;SDS011;13143;50.924;5.320;2023-02-21T15:30:05;29.70;;;16.50;;
25191;SDS011;13143;50.924;5.320;2023-02-21T15:32:37;29.08;;;16.13;;
25191;SDS011;13143;50.924;5.320;2023-02-21T15:35:04;29.90;;;17.70;;
25191;SDS011;13143;50.924;5.320;2023-02-21T15:37:32;28.73;;;17.75;;
25191;SDS011;13143;50.924;5.320;2023-02-21T15:40:02;32.83;;;17.80;;
25191;SDS011;13143;50.924;5.320;2023-02-21T15:42:38;28.58;;;17.08;;
25191;SDS011;13143;50.924;5.320;2023-02-21T15:45:09;28.73;;;16.35;;
25191;SDS011;13143;50.924;5.320;2023-02-21T15:47:41;30.70;;;17.67;;
25191;SDS011;13143;50.924;5.320;2023-02-21T15:50:11;32.55;;;17.27;;
25191;SDS011;13143;50.924;5.320;2023-02-21T15:52:43;28.77;;;17.20;;
25191;SDS011;13143;50.924;5.320;2023-02-21T15:55:31;28.80;;;17.33;;
25191;SDS011;13143;50.924;5.320;2023-02-21T15:57:58;30.63;;;17.60;;
25191;SDS011;13143;50.924;5.320;2023-02-21T16:00:38;30.10;;;16.95;;
25191;SDS011;13143;50.924;5.320;2023-02-21T16:06:06;30.20;;;16.95;;
25191;SDS011;13143;50.924;5.320;2023-02-21T16:08:53;33.38;;;17.75;;
25191;SDS011;13143;50.924;5.320;2023-02-21T16:19:55;35.28;;;17.77;;
25191;SDS011;13143;50.924;5.320;2023-02-21T16:27:35;36.03;;;19.02;;
25191;SDS011;13143;50.924;5.320;2023-02-21T16:30:05;33.97;;;18.65;;
25191;SDS011;13143;50.924;5.320;2023-02-21T16:32:35;33.78;;;19.13;;
25191;SDS011;13143;50.924;5.320;2023-02-21T16:35:03;32.65;;;18.33;;
25191;SDS011;13143;50.924;5.320;2023-02-21T16:37:28;32.25;;;18.40;;
25191;SDS011;13143;50.924;5.320;2023-02-21T16:39:56;32.53;;;17.50;;
25191;SDS011;13143;50.924;5.320;2023-02-21T16:42:21;35.42;;;19.75;;
25191;SDS011;13143;50.924;5.320;2023-02-21T16:44:47;33.42;;;18.55;;
25191;SDS011;13143;50.924;5.320;2023-02-21T16:47:14;33.42;;;18.90;;
25191;SDS011;13143;50.924;5.320;2023-02-21T16:49:41;33.28;;;18.95;;
25191;SDS011;13143;50.924;5.320;2023-02-21T16:52:12;36.15;;;19.65;;
25191;SDS011;13143;50.924;5.320;2023-02-21T16:54:39;36.75;;;20.00;;
25191;SDS011;13143;50.924;5.320;2023-02-21T16:57:04;36.05;;;20.00;;
25191;SDS011;13143;50.924;5.320;2023-02-21T16:59:30;38.13;;;20.48;;
25191;SDS011;13143;50.924;5.320;2023-02-21T17:01:56;35.67;;;18.48;;
25191;SDS011;13143;50.924;5.320;2023-02-21T17:04:22;36.28;;;19.90;;
25191;SDS011;13143;50.924;5.320;2023-02-21T17:06:53;36.17;;;19.38;;
25191;SDS011;13143;50.924;5.320;2023-02-21T17:09:24;35.42;;;19.52;;
25191;SDS011;13143;50.924;5.320;2023-02-21T17:11:52;36.63;;;19.02;;
25191;SDS011;13143;50.924;5.320;2023-02-21T17:14:18;38.33;;;19.20;;
25191;SDS011;13143;50.924;5.320;2023-02-21T17:16:45;36.78;;;18.42;;
25191;SDS011;13143;50.924;5.320;2023-02-21T17:19:11;45.70;;;20.83;;
25191;SDS011;13143;50.924;5.320;2023-02-21T17:21:39;37.78;;;19.77;;
25191;SDS011;13143;50.924;5.320;2023-02-21T17:24:05;39.17;;;19.15;;
25191;SDS011;13143;50.924;5.320;2023-02-21T17:26:31;37.63;;;19.45;;
25191;SDS011;13143;50.924;5.320;2023-02-21T17:28:57;39.22;;;19.35;;
25191;SDS011;13143;50.924;5.320;2023-02-21T17:31:22;38.00;;;20.60;;
25191;SDS011;13143;50.924;5.320;2023-02-21T17:33:48;43.10;;;20.27;;
25191;SDS011;13143;50.924;5.320;2023-02-21T17:36:17;41.17;;;19.98;;
25191;SDS011;13143;50.924;5.320;2023-02-21T17:38:44;39.22;;;20.05;;